<?xml version="1.0" encoding="UTF-8" standalone="no" ?>
<gpx xmlns="http://www.topografix.com/GPX/1/1" xmlns:xsi="http://www.w3.org/2001/XMLSchema-instance" xsi:schemaLocation="http://www.topografix.com/GPX/1/1 http://www.topografix.com/GPX/1/1/gpx.xsd" version="1.1" creator="VisuGPX - https://www.visugpx.com">
  <metadata>
    <name>Smuid MARCHE ADEPS 2017 (Juil)</name>
    <desc><![CDATA[MARCHE ADEPS A FAIRE LE DIMANCHE BEAU COIN BIEN SYMPA]]></desc>
  </metadata>
  <trk>
    <name><![CDATA[Smuid MARCHE ADEPS 2017 (Juil)_1]]></name>
    <trkseg>
      <trkpt lat="50.01783" lon="5.26563">
        <ele>359</ele>
        <time>2017-07-09T08:24:58Z</time>
      </trkpt>
      <trkpt lat="50.01797" lon="5.26553">
        <ele>359</ele>
        <time>2017-07-09T08:25:08Z</time>
      </trkpt>
      <trkpt lat="50.01825" lon="5.26541">
        <ele>356</ele>
        <time>2017-07-09T08:25:18Z</time>
      </trkpt>
      <trkpt lat="50.01836" lon="5.26573">
        <ele>354</ele>
        <time>2017-07-09T08:25:29Z</time>
      </trkpt>
      <trkpt lat="50.01851" lon="5.26597">
        <ele>352</ele>
        <time>2017-07-09T08:25:40Z</time>
      </trkpt>
      <trkpt lat="50.01876" lon="5.26574">
        <ele>350</ele>
        <time>2017-07-09T08:25:50Z</time>
      </trkpt>
      <trkpt lat="50.01907" lon="5.26567">
        <ele>348</ele>
        <time>2017-07-09T08:26:01Z</time>
      </trkpt>
      <trkpt lat="50.01938" lon="5.26556">
        <ele>347</ele>
        <time>2017-07-09T08:26:11Z</time>
      </trkpt>
      <trkpt lat="50.01967" lon="5.2655">
        <ele>345</ele>
        <time>2017-07-09T08:26:21Z</time>
      </trkpt>
      <trkpt lat="50.01997" lon="5.26542">
        <ele>344</ele>
        <time>2017-07-09T08:26:32Z</time>
      </trkpt>
      <trkpt lat="50.02025" lon="5.26535">
        <ele>343</ele>
        <time>2017-07-09T08:26:43Z</time>
      </trkpt>
      <trkpt lat="50.02053" lon="5.26532">
        <ele>343</ele>
        <time>2017-07-09T08:26:53Z</time>
      </trkpt>
      <trkpt lat="50.02082" lon="5.26527">
        <ele>341</ele>
        <time>2017-07-09T08:27:04Z</time>
      </trkpt>
      <trkpt lat="50.02112" lon="5.26522">
        <ele>339</ele>
        <time>2017-07-09T08:27:15Z</time>
      </trkpt>
      <trkpt lat="50.02139" lon="5.26506">
        <ele>337</ele>
        <time>2017-07-09T08:27:26Z</time>
      </trkpt>
      <trkpt lat="50.02161" lon="5.2648">
        <ele>335</ele>
        <time>2017-07-09T08:27:36Z</time>
      </trkpt>
      <trkpt lat="50.02183" lon="5.26448">
        <ele>333</ele>
        <time>2017-07-09T08:27:47Z</time>
      </trkpt>
      <trkpt lat="50.02203" lon="5.26416">
        <ele>330</ele>
        <time>2017-07-09T08:27:58Z</time>
      </trkpt>
      <trkpt lat="50.02222" lon="5.26389">
        <ele>330</ele>
        <time>2017-07-09T08:28:08Z</time>
      </trkpt>
      <trkpt lat="50.02241" lon="5.26358">
        <ele>330</ele>
        <time>2017-07-09T08:28:19Z</time>
      </trkpt>
      <trkpt lat="50.02261" lon="5.26327">
        <ele>330</ele>
        <time>2017-07-09T08:28:30Z</time>
      </trkpt>
      <trkpt lat="50.02281" lon="5.26309">
        <ele>331</ele>
        <time>2017-07-09T08:28:41Z</time>
      </trkpt>
      <trkpt lat="50.02298" lon="5.26305">
        <ele>331</ele>
        <time>2017-07-09T08:28:52Z</time>
      </trkpt>
      <trkpt lat="50.02311" lon="5.26305">
        <ele>331</ele>
        <time>2017-07-09T08:29:03Z</time>
      </trkpt>
      <trkpt lat="50.02324" lon="5.26304">
        <ele>333</ele>
        <time>2017-07-09T08:29:13Z</time>
      </trkpt>
      <trkpt lat="50.0234" lon="5.26301">
        <ele>334</ele>
        <time>2017-07-09T08:29:24Z</time>
      </trkpt>
      <trkpt lat="50.02355" lon="5.26304">
        <ele>335</ele>
        <time>2017-07-09T08:29:34Z</time>
      </trkpt>
      <trkpt lat="50.02364" lon="5.2633">
        <ele>335</ele>
        <time>2017-07-09T08:29:45Z</time>
      </trkpt>
      <trkpt lat="50.02366" lon="5.26361">
        <ele>335</ele>
        <time>2017-07-09T08:29:56Z</time>
      </trkpt>
      <trkpt lat="50.0237" lon="5.26389">
        <ele>334</ele>
        <time>2017-07-09T08:30:07Z</time>
      </trkpt>
      <trkpt lat="50.02375" lon="5.26415">
        <ele>335</ele>
        <time>2017-07-09T08:30:17Z</time>
      </trkpt>
      <trkpt lat="50.02378" lon="5.26445">
        <ele>334</ele>
        <time>2017-07-09T08:30:27Z</time>
      </trkpt>
      <trkpt lat="50.02383" lon="5.26472">
        <ele>334</ele>
        <time>2017-07-09T08:30:37Z</time>
      </trkpt>
      <trkpt lat="50.02385" lon="5.26498">
        <ele>334</ele>
        <time>2017-07-09T08:30:48Z</time>
      </trkpt>
      <trkpt lat="50.0239" lon="5.26526">
        <ele>334</ele>
        <time>2017-07-09T08:30:59Z</time>
      </trkpt>
      <trkpt lat="50.02395" lon="5.26553">
        <ele>334</ele>
        <time>2017-07-09T08:31:09Z</time>
      </trkpt>
      <trkpt lat="50.02402" lon="5.26582">
        <ele>334</ele>
        <time>2017-07-09T08:31:20Z</time>
      </trkpt>
      <trkpt lat="50.02408" lon="5.26609">
        <ele>334</ele>
        <time>2017-07-09T08:31:30Z</time>
      </trkpt>
      <trkpt lat="50.02414" lon="5.26637">
        <ele>334</ele>
        <time>2017-07-09T08:31:41Z</time>
      </trkpt>
      <trkpt lat="50.02419" lon="5.26663">
        <ele>335</ele>
        <time>2017-07-09T08:31:52Z</time>
      </trkpt>
      <trkpt lat="50.0243" lon="5.26681">
        <ele>335</ele>
        <time>2017-07-09T08:32:02Z</time>
      </trkpt>
      <trkpt lat="50.02446" lon="5.26687">
        <ele>336</ele>
        <time>2017-07-09T08:32:13Z</time>
      </trkpt>
      <trkpt lat="50.02462" lon="5.26689">
        <ele>336</ele>
        <time>2017-07-09T08:32:23Z</time>
      </trkpt>
      <trkpt lat="50.02481" lon="5.2669">
        <ele>337</ele>
        <time>2017-07-09T08:32:34Z</time>
      </trkpt>
      <trkpt lat="50.025" lon="5.26694">
        <ele>338</ele>
        <time>2017-07-09T08:32:44Z</time>
      </trkpt>
      <trkpt lat="50.02531" lon="5.26703">
        <ele>337</ele>
        <time>2017-07-09T08:32:55Z</time>
      </trkpt>
      <trkpt lat="50.02557" lon="5.26719">
        <ele>335</ele>
        <time>2017-07-09T08:33:05Z</time>
      </trkpt>
      <trkpt lat="50.02581" lon="5.26739">
        <ele>334</ele>
        <time>2017-07-09T08:33:15Z</time>
      </trkpt>
      <trkpt lat="50.02609" lon="5.26752">
        <ele>332</ele>
        <time>2017-07-09T08:33:26Z</time>
      </trkpt>
      <trkpt lat="50.02636" lon="5.2677">
        <ele>330</ele>
        <time>2017-07-09T08:33:37Z</time>
      </trkpt>
      <trkpt lat="50.02661" lon="5.26789">
        <ele>328</ele>
        <time>2017-07-09T08:33:47Z</time>
      </trkpt>
      <trkpt lat="50.02689" lon="5.26796">
        <ele>325</ele>
        <time>2017-07-09T08:33:57Z</time>
      </trkpt>
      <trkpt lat="50.02721" lon="5.26801">
        <ele>323</ele>
        <time>2017-07-09T08:34:08Z</time>
      </trkpt>
      <trkpt lat="50.02747" lon="5.26809">
        <ele>323</ele>
        <time>2017-07-09T08:34:19Z</time>
      </trkpt>
      <trkpt lat="50.02756" lon="5.26842">
        <ele>321</ele>
        <time>2017-07-09T08:34:29Z</time>
      </trkpt>
      <trkpt lat="50.02769" lon="5.2687">
        <ele>319</ele>
        <time>2017-07-09T08:34:40Z</time>
      </trkpt>
      <trkpt lat="50.0278" lon="5.26894">
        <ele>319</ele>
        <time>2017-07-09T08:34:51Z</time>
      </trkpt>
      <trkpt lat="50.02795" lon="5.26926">
        <ele>318</ele>
        <time>2017-07-09T08:35:01Z</time>
      </trkpt>
      <trkpt lat="50.02811" lon="5.26962">
        <ele>317</ele>
        <time>2017-07-09T08:35:12Z</time>
      </trkpt>
      <trkpt lat="50.02828" lon="5.26972">
        <ele>317</ele>
        <time>2017-07-09T08:35:22Z</time>
      </trkpt>
      <trkpt lat="50.02848" lon="5.2696">
        <ele>316</ele>
        <time>2017-07-09T08:35:33Z</time>
      </trkpt>
      <trkpt lat="50.02862" lon="5.26938">
        <ele>316</ele>
        <time>2017-07-09T08:35:44Z</time>
      </trkpt>
      <trkpt lat="50.02873" lon="5.26912">
        <ele>316</ele>
        <time>2017-07-09T08:35:54Z</time>
      </trkpt>
      <trkpt lat="50.02885" lon="5.26877">
        <ele>314</ele>
        <time>2017-07-09T08:36:05Z</time>
      </trkpt>
      <trkpt lat="50.02898" lon="5.26836">
        <ele>313</ele>
        <time>2017-07-09T08:36:16Z</time>
      </trkpt>
      <trkpt lat="50.02908" lon="5.26804">
        <ele>310</ele>
        <time>2017-07-09T08:36:26Z</time>
      </trkpt>
      <trkpt lat="50.02919" lon="5.26777">
        <ele>309</ele>
        <time>2017-07-09T08:36:36Z</time>
      </trkpt>
      <trkpt lat="50.02931" lon="5.26739">
        <ele>307</ele>
        <time>2017-07-09T08:36:47Z</time>
      </trkpt>
      <trkpt lat="50.02944" lon="5.26702">
        <ele>304</ele>
        <time>2017-07-09T08:36:57Z</time>
      </trkpt>
      <trkpt lat="50.02956" lon="5.26666">
        <ele>302</ele>
        <time>2017-07-09T08:37:07Z</time>
      </trkpt>
      <trkpt lat="50.02967" lon="5.26628">
        <ele>300</ele>
        <time>2017-07-09T08:37:17Z</time>
      </trkpt>
      <trkpt lat="50.0298" lon="5.26585">
        <ele>299</ele>
        <time>2017-07-09T08:37:28Z</time>
      </trkpt>
      <trkpt lat="50.02987" lon="5.2654">
        <ele>296</ele>
        <time>2017-07-09T08:37:38Z</time>
      </trkpt>
      <trkpt lat="50.02991" lon="5.26486">
        <ele>294</ele>
        <time>2017-07-09T08:37:49Z</time>
      </trkpt>
      <trkpt lat="50.02991" lon="5.26441">
        <ele>293</ele>
        <time>2017-07-09T08:37:59Z</time>
      </trkpt>
      <trkpt lat="50.02994" lon="5.26395">
        <ele>293</ele>
        <time>2017-07-09T08:38:10Z</time>
      </trkpt>
      <trkpt lat="50.02998" lon="5.26348">
        <ele>293</ele>
        <time>2017-07-09T08:38:21Z</time>
      </trkpt>
      <trkpt lat="50.02999" lon="5.26315">
        <ele>294</ele>
        <time>2017-07-09T08:38:31Z</time>
      </trkpt>
      <trkpt lat="50.03003" lon="5.26289">
        <ele>294</ele>
        <time>2017-07-09T08:38:42Z</time>
      </trkpt>
      <trkpt lat="50.03008" lon="5.26261">
        <ele>295</ele>
        <time>2017-07-09T08:38:52Z</time>
      </trkpt>
      <trkpt lat="50.0301" lon="5.26236">
        <ele>296</ele>
        <time>2017-07-09T08:39:02Z</time>
      </trkpt>
      <trkpt lat="50.03012" lon="5.26211">
        <ele>296</ele>
        <time>2017-07-09T08:39:13Z</time>
      </trkpt>
      <trkpt lat="50.03014" lon="5.26192">
        <ele>298</ele>
        <time>2017-07-09T08:39:23Z</time>
      </trkpt>
      <trkpt lat="50.03016" lon="5.2617">
        <ele>299</ele>
        <time>2017-07-09T08:39:33Z</time>
      </trkpt>
      <trkpt lat="50.03015" lon="5.26148">
        <ele>300</ele>
        <time>2017-07-09T08:39:43Z</time>
      </trkpt>
      <trkpt lat="50.03013" lon="5.26122">
        <ele>301</ele>
        <time>2017-07-09T08:39:54Z</time>
      </trkpt>
      <trkpt lat="50.03012" lon="5.26097">
        <ele>302</ele>
        <time>2017-07-09T08:40:05Z</time>
      </trkpt>
      <trkpt lat="50.03012" lon="5.26072">
        <ele>303</ele>
        <time>2017-07-09T08:40:15Z</time>
      </trkpt>
      <trkpt lat="50.03009" lon="5.26046">
        <ele>304</ele>
        <time>2017-07-09T08:40:25Z</time>
      </trkpt>
      <trkpt lat="50.03006" lon="5.26017">
        <ele>305</ele>
        <time>2017-07-09T08:40:36Z</time>
      </trkpt>
      <trkpt lat="50.03004" lon="5.25987">
        <ele>307</ele>
        <time>2017-07-09T08:40:47Z</time>
      </trkpt>
      <trkpt lat="50.03004" lon="5.25959">
        <ele>307</ele>
        <time>2017-07-09T08:40:57Z</time>
      </trkpt>
      <trkpt lat="50.03004" lon="5.25933">
        <ele>308</ele>
        <time>2017-07-09T08:41:08Z</time>
      </trkpt>
      <trkpt lat="50.03003" lon="5.25907">
        <ele>309</ele>
        <time>2017-07-09T08:41:19Z</time>
      </trkpt>
      <trkpt lat="50.03001" lon="5.25883">
        <ele>310</ele>
        <time>2017-07-09T08:41:30Z</time>
      </trkpt>
      <trkpt lat="50.03002" lon="5.25861">
        <ele>311</ele>
        <time>2017-07-09T08:41:40Z</time>
      </trkpt>
      <trkpt lat="50.03003" lon="5.25836">
        <ele>312</ele>
        <time>2017-07-09T08:41:51Z</time>
      </trkpt>
      <trkpt lat="50.03002" lon="5.25812">
        <ele>313</ele>
        <time>2017-07-09T08:42:01Z</time>
      </trkpt>
      <trkpt lat="50.02996" lon="5.2579">
        <ele>314</ele>
        <time>2017-07-09T08:42:12Z</time>
      </trkpt>
      <trkpt lat="50.02979" lon="5.25786">
        <ele>315</ele>
        <time>2017-07-09T08:42:23Z</time>
      </trkpt>
      <trkpt lat="50.02966" lon="5.2579">
        <ele>316</ele>
        <time>2017-07-09T08:42:33Z</time>
      </trkpt>
      <trkpt lat="50.02951" lon="5.25797">
        <ele>317</ele>
        <time>2017-07-09T08:42:43Z</time>
      </trkpt>
      <trkpt lat="50.02936" lon="5.25799">
        <ele>318</ele>
        <time>2017-07-09T08:42:53Z</time>
      </trkpt>
      <trkpt lat="50.02942" lon="5.25784">
        <ele>318</ele>
        <time>2017-07-09T08:43:04Z</time>
      </trkpt>
      <trkpt lat="50.02954" lon="5.25764">
        <ele>317</ele>
        <time>2017-07-09T08:43:15Z</time>
      </trkpt>
      <trkpt lat="50.02965" lon="5.25747">
        <ele>317</ele>
        <time>2017-07-09T08:43:25Z</time>
      </trkpt>
      <trkpt lat="50.02977" lon="5.25731">
        <ele>317</ele>
        <time>2017-07-09T08:43:35Z</time>
      </trkpt>
      <trkpt lat="50.02992" lon="5.25716">
        <ele>317</ele>
        <time>2017-07-09T08:43:46Z</time>
      </trkpt>
      <trkpt lat="50.03004" lon="5.25695">
        <ele>317</ele>
        <time>2017-07-09T08:43:56Z</time>
      </trkpt>
      <trkpt lat="50.03015" lon="5.25677">
        <ele>317</ele>
        <time>2017-07-09T08:44:07Z</time>
      </trkpt>
      <trkpt lat="50.03027" lon="5.25658">
        <ele>317</ele>
        <time>2017-07-09T08:44:18Z</time>
      </trkpt>
      <trkpt lat="50.03038" lon="5.25635">
        <ele>317</ele>
        <time>2017-07-09T08:44:29Z</time>
      </trkpt>
      <trkpt lat="50.0305" lon="5.25615">
        <ele>317</ele>
        <time>2017-07-09T08:44:39Z</time>
      </trkpt>
      <trkpt lat="50.03063" lon="5.25595">
        <ele>318</ele>
        <time>2017-07-09T08:44:50Z</time>
      </trkpt>
      <trkpt lat="50.03078" lon="5.25583">
        <ele>319</ele>
        <time>2017-07-09T08:45:00Z</time>
      </trkpt>
      <trkpt lat="50.03095" lon="5.25573">
        <ele>320</ele>
        <time>2017-07-09T08:45:11Z</time>
      </trkpt>
      <trkpt lat="50.03109" lon="5.25562">
        <ele>322</ele>
        <time>2017-07-09T08:45:21Z</time>
      </trkpt>
      <trkpt lat="50.03123" lon="5.25555">
        <ele>323</ele>
        <time>2017-07-09T08:45:32Z</time>
      </trkpt>
      <trkpt lat="50.03136" lon="5.25552">
        <ele>324</ele>
        <time>2017-07-09T08:45:42Z</time>
      </trkpt>
      <trkpt lat="50.03151" lon="5.25546">
        <ele>325</ele>
        <time>2017-07-09T08:45:53Z</time>
      </trkpt>
      <trkpt lat="50.03166" lon="5.2554">
        <ele>326</ele>
        <time>2017-07-09T08:46:03Z</time>
      </trkpt>
      <trkpt lat="50.03182" lon="5.25533">
        <ele>326</ele>
        <time>2017-07-09T08:46:14Z</time>
      </trkpt>
      <trkpt lat="50.03196" lon="5.25524">
        <ele>328</ele>
        <time>2017-07-09T08:46:24Z</time>
      </trkpt>
      <trkpt lat="50.03214" lon="5.25512">
        <ele>328</ele>
        <time>2017-07-09T08:46:34Z</time>
      </trkpt>
      <trkpt lat="50.03236" lon="5.25499">
        <ele>328</ele>
        <time>2017-07-09T08:46:45Z</time>
      </trkpt>
      <trkpt lat="50.03255" lon="5.25487">
        <ele>328</ele>
        <time>2017-07-09T08:46:55Z</time>
      </trkpt>
      <trkpt lat="50.03268" lon="5.2548">
        <ele>326</ele>
        <time>2017-07-09T08:47:05Z</time>
      </trkpt>
      <trkpt lat="50.03281" lon="5.25473">
        <ele>327</ele>
        <time>2017-07-09T08:47:16Z</time>
      </trkpt>
      <trkpt lat="50.03297" lon="5.25464">
        <ele>327</ele>
        <time>2017-07-09T08:47:26Z</time>
      </trkpt>
      <trkpt lat="50.03316" lon="5.25448">
        <ele>327</ele>
        <time>2017-07-09T08:47:37Z</time>
      </trkpt>
      <trkpt lat="50.0333" lon="5.25435">
        <ele>327</ele>
        <time>2017-07-09T08:47:47Z</time>
      </trkpt>
      <trkpt lat="50.03343" lon="5.25415">
        <ele>327</ele>
        <time>2017-07-09T08:47:58Z</time>
      </trkpt>
      <trkpt lat="50.03343" lon="5.25392">
        <ele>329</ele>
        <time>2017-07-09T08:48:08Z</time>
      </trkpt>
      <trkpt lat="50.03342" lon="5.25371">
        <ele>330</ele>
        <time>2017-07-09T08:48:18Z</time>
      </trkpt>
      <trkpt lat="50.03339" lon="5.25346">
        <ele>332</ele>
        <time>2017-07-09T08:48:29Z</time>
      </trkpt>
      <trkpt lat="50.03337" lon="5.25323">
        <ele>333</ele>
        <time>2017-07-09T08:48:39Z</time>
      </trkpt>
      <trkpt lat="50.03335" lon="5.25303">
        <ele>335</ele>
        <time>2017-07-09T08:48:49Z</time>
      </trkpt>
      <trkpt lat="50.03333" lon="5.25283">
        <ele>336</ele>
        <time>2017-07-09T08:48:59Z</time>
      </trkpt>
      <trkpt lat="50.03331" lon="5.25259">
        <ele>337</ele>
        <time>2017-07-09T08:49:09Z</time>
      </trkpt>
      <trkpt lat="50.03329" lon="5.25238">
        <ele>339</ele>
        <time>2017-07-09T08:49:19Z</time>
      </trkpt>
      <trkpt lat="50.03325" lon="5.25219">
        <ele>340</ele>
        <time>2017-07-09T08:49:30Z</time>
      </trkpt>
      <trkpt lat="50.03337" lon="5.25203">
        <ele>341</ele>
        <time>2017-07-09T08:49:40Z</time>
      </trkpt>
      <trkpt lat="50.03351" lon="5.25186">
        <ele>341</ele>
        <time>2017-07-09T08:49:51Z</time>
      </trkpt>
      <trkpt lat="50.03366" lon="5.25172">
        <ele>342</ele>
        <time>2017-07-09T08:50:01Z</time>
      </trkpt>
      <trkpt lat="50.03386" lon="5.2516">
        <ele>342</ele>
        <time>2017-07-09T08:50:11Z</time>
      </trkpt>
      <trkpt lat="50.03402" lon="5.25155">
        <ele>343</ele>
        <time>2017-07-09T08:50:21Z</time>
      </trkpt>
      <trkpt lat="50.03418" lon="5.25142">
        <ele>344</ele>
        <time>2017-07-09T08:50:32Z</time>
      </trkpt>
      <trkpt lat="50.03419" lon="5.25121">
        <ele>345</ele>
        <time>2017-07-09T08:50:43Z</time>
      </trkpt>
      <trkpt lat="50.03421" lon="5.25099">
        <ele>346</ele>
        <time>2017-07-09T08:50:53Z</time>
      </trkpt>
      <trkpt lat="50.03418" lon="5.25074">
        <ele>347</ele>
        <time>2017-07-09T08:51:04Z</time>
      </trkpt>
      <trkpt lat="50.03419" lon="5.25051">
        <ele>347</ele>
        <time>2017-07-09T08:51:14Z</time>
      </trkpt>
      <trkpt lat="50.03414" lon="5.25035">
        <ele>348</ele>
        <time>2017-07-09T08:51:24Z</time>
      </trkpt>
      <trkpt lat="50.03401" lon="5.25028">
        <ele>348</ele>
        <time>2017-07-09T08:51:34Z</time>
      </trkpt>
      <trkpt lat="50.03384" lon="5.25027">
        <ele>348</ele>
        <time>2017-07-09T08:51:45Z</time>
      </trkpt>
      <trkpt lat="50.0337" lon="5.25021">
        <ele>348</ele>
        <time>2017-07-09T08:51:56Z</time>
      </trkpt>
      <trkpt lat="50.03356" lon="5.25011">
        <ele>348</ele>
        <time>2017-07-09T08:52:07Z</time>
      </trkpt>
      <trkpt lat="50.03341" lon="5.24995">
        <ele>347</ele>
        <time>2017-07-09T08:52:18Z</time>
      </trkpt>
      <trkpt lat="50.03328" lon="5.24977">
        <ele>347</ele>
        <time>2017-07-09T08:52:29Z</time>
      </trkpt>
      <trkpt lat="50.03316" lon="5.24962">
        <ele>348</ele>
        <time>2017-07-09T08:52:39Z</time>
      </trkpt>
      <trkpt lat="50.03305" lon="5.24949">
        <ele>348</ele>
        <time>2017-07-09T08:52:50Z</time>
      </trkpt>
      <trkpt lat="50.03292" lon="5.24935">
        <ele>347</ele>
        <time>2017-07-09T08:53:00Z</time>
      </trkpt>
      <trkpt lat="50.03279" lon="5.24924">
        <ele>347</ele>
        <time>2017-07-09T08:53:11Z</time>
      </trkpt>
      <trkpt lat="50.03266" lon="5.24917">
        <ele>347</ele>
        <time>2017-07-09T08:53:22Z</time>
      </trkpt>
      <trkpt lat="50.03254" lon="5.24908">
        <ele>347</ele>
        <time>2017-07-09T08:53:32Z</time>
      </trkpt>
      <trkpt lat="50.03244" lon="5.24904">
        <ele>348</ele>
        <time>2017-07-09T08:53:43Z</time>
      </trkpt>
      <trkpt lat="50.0323" lon="5.249">
        <ele>348</ele>
        <time>2017-07-09T08:53:54Z</time>
      </trkpt>
      <trkpt lat="50.03216" lon="5.24896">
        <ele>348</ele>
        <time>2017-07-09T08:54:04Z</time>
      </trkpt>
      <trkpt lat="50.03205" lon="5.24896">
        <ele>347</ele>
        <time>2017-07-09T08:54:14Z</time>
      </trkpt>
      <trkpt lat="50.03191" lon="5.24897">
        <ele>347</ele>
        <time>2017-07-09T08:54:25Z</time>
      </trkpt>
      <trkpt lat="50.03177" lon="5.249">
        <ele>347</ele>
        <time>2017-07-09T08:54:35Z</time>
      </trkpt>
      <trkpt lat="50.03162" lon="5.24904">
        <ele>346</ele>
        <time>2017-07-09T08:54:46Z</time>
      </trkpt>
      <trkpt lat="50.03149" lon="5.24909">
        <ele>346</ele>
        <time>2017-07-09T08:54:56Z</time>
      </trkpt>
      <trkpt lat="50.03138" lon="5.24916">
        <ele>346</ele>
        <time>2017-07-09T08:55:06Z</time>
      </trkpt>
      <trkpt lat="50.03127" lon="5.24925">
        <ele>346</ele>
        <time>2017-07-09T08:55:17Z</time>
      </trkpt>
      <trkpt lat="50.03112" lon="5.24938">
        <ele>345</ele>
        <time>2017-07-09T08:55:27Z</time>
      </trkpt>
      <trkpt lat="50.03097" lon="5.24954">
        <ele>344</ele>
        <time>2017-07-09T08:55:37Z</time>
      </trkpt>
      <trkpt lat="50.03085" lon="5.24973">
        <ele>343</ele>
        <time>2017-07-09T08:55:47Z</time>
      </trkpt>
      <trkpt lat="50.0307" lon="5.24993">
        <ele>343</ele>
        <time>2017-07-09T08:55:57Z</time>
      </trkpt>
      <trkpt lat="50.03051" lon="5.25016">
        <ele>342</ele>
        <time>2017-07-09T08:56:08Z</time>
      </trkpt>
      <trkpt lat="50.03031" lon="5.25047">
        <ele>342</ele>
        <time>2017-07-09T08:56:19Z</time>
      </trkpt>
      <trkpt lat="50.03018" lon="5.25064">
        <ele>342</ele>
        <time>2017-07-09T08:56:30Z</time>
      </trkpt>
      <trkpt lat="50.03001" lon="5.25077">
        <ele>343</ele>
        <time>2017-07-09T08:56:41Z</time>
      </trkpt>
      <trkpt lat="50.02985" lon="5.25093">
        <ele>344</ele>
        <time>2017-07-09T08:56:51Z</time>
      </trkpt>
      <trkpt lat="50.02971" lon="5.25112">
        <ele>344</ele>
        <time>2017-07-09T08:57:02Z</time>
      </trkpt>
      <trkpt lat="50.02956" lon="5.25125">
        <ele>345</ele>
        <time>2017-07-09T08:57:13Z</time>
      </trkpt>
      <trkpt lat="50.0294" lon="5.25139">
        <ele>345</ele>
        <time>2017-07-09T08:57:24Z</time>
      </trkpt>
      <trkpt lat="50.02925" lon="5.25154">
        <ele>347</ele>
        <time>2017-07-09T08:57:34Z</time>
      </trkpt>
      <trkpt lat="50.02914" lon="5.25169">
        <ele>347</ele>
        <time>2017-07-09T08:57:44Z</time>
      </trkpt>
      <trkpt lat="50.029" lon="5.25181">
        <ele>347</ele>
        <time>2017-07-09T08:57:54Z</time>
      </trkpt>
      <trkpt lat="50.02884" lon="5.25195">
        <ele>348</ele>
        <time>2017-07-09T08:58:05Z</time>
      </trkpt>
      <trkpt lat="50.02867" lon="5.25208">
        <ele>347</ele>
        <time>2017-07-09T08:58:15Z</time>
      </trkpt>
      <trkpt lat="50.02855" lon="5.25217">
        <ele>347</ele>
        <time>2017-07-09T08:58:25Z</time>
      </trkpt>
      <trkpt lat="50.02841" lon="5.25229">
        <ele>347</ele>
        <time>2017-07-09T08:58:36Z</time>
      </trkpt>
      <trkpt lat="50.02824" lon="5.25242">
        <ele>347</ele>
        <time>2017-07-09T08:58:46Z</time>
      </trkpt>
      <trkpt lat="50.0281" lon="5.25255">
        <ele>347</ele>
        <time>2017-07-09T08:58:57Z</time>
      </trkpt>
      <trkpt lat="50.02795" lon="5.25267">
        <ele>347</ele>
        <time>2017-07-09T08:59:07Z</time>
      </trkpt>
      <trkpt lat="50.02779" lon="5.25283">
        <ele>348</ele>
        <time>2017-07-09T08:59:17Z</time>
      </trkpt>
      <trkpt lat="50.02763" lon="5.25299">
        <ele>348</ele>
        <time>2017-07-09T08:59:28Z</time>
      </trkpt>
      <trkpt lat="50.02752" lon="5.25312">
        <ele>348</ele>
        <time>2017-07-09T08:59:38Z</time>
      </trkpt>
      <trkpt lat="50.02741" lon="5.25333">
        <ele>349</ele>
        <time>2017-07-09T08:59:49Z</time>
      </trkpt>
      <trkpt lat="50.02721" lon="5.25369">
        <ele>349</ele>
        <time>2017-07-09T08:59:59Z</time>
      </trkpt>
      <trkpt lat="50.02707" lon="5.25399">
        <ele>350</ele>
        <time>2017-07-09T09:00:09Z</time>
      </trkpt>
      <trkpt lat="50.02693" lon="5.25424">
        <ele>350</ele>
        <time>2017-07-09T09:00:19Z</time>
      </trkpt>
      <trkpt lat="50.02672" lon="5.25429">
        <ele>350</ele>
        <time>2017-07-09T09:00:30Z</time>
      </trkpt>
      <trkpt lat="50.02646" lon="5.2541">
        <ele>351</ele>
        <time>2017-07-09T09:00:41Z</time>
      </trkpt>
      <trkpt lat="50.02626" lon="5.25389">
        <ele>352</ele>
        <time>2017-07-09T09:00:51Z</time>
      </trkpt>
      <trkpt lat="50.02605" lon="5.25364">
        <ele>351</ele>
        <time>2017-07-09T09:01:01Z</time>
      </trkpt>
      <trkpt lat="50.02587" lon="5.25335">
        <ele>351</ele>
        <time>2017-07-09T09:01:12Z</time>
      </trkpt>
      <trkpt lat="50.02569" lon="5.25304">
        <ele>351</ele>
        <time>2017-07-09T09:01:23Z</time>
      </trkpt>
      <trkpt lat="50.02554" lon="5.25275">
        <ele>350</ele>
        <time>2017-07-09T09:01:34Z</time>
      </trkpt>
      <trkpt lat="50.02539" lon="5.25255">
        <ele>349</ele>
        <time>2017-07-09T09:01:44Z</time>
      </trkpt>
      <trkpt lat="50.02521" lon="5.25223">
        <ele>349</ele>
        <time>2017-07-09T09:01:55Z</time>
      </trkpt>
      <trkpt lat="50.025" lon="5.25191">
        <ele>348</ele>
        <time>2017-07-09T09:02:05Z</time>
      </trkpt>
      <trkpt lat="50.02478" lon="5.25157">
        <ele>347</ele>
        <time>2017-07-09T09:02:16Z</time>
      </trkpt>
      <trkpt lat="50.02464" lon="5.25127">
        <ele>347</ele>
        <time>2017-07-09T09:02:26Z</time>
      </trkpt>
      <trkpt lat="50.02452" lon="5.25086">
        <ele>347</ele>
        <time>2017-07-09T09:02:36Z</time>
      </trkpt>
      <trkpt lat="50.02455" lon="5.25048">
        <ele>344</ele>
        <time>2017-07-09T09:02:47Z</time>
      </trkpt>
      <trkpt lat="50.02457" lon="5.25008">
        <ele>343</ele>
        <time>2017-07-09T09:02:57Z</time>
      </trkpt>
      <trkpt lat="50.02462" lon="5.24971">
        <ele>342</ele>
        <time>2017-07-09T09:03:07Z</time>
      </trkpt>
      <trkpt lat="50.02465" lon="5.24928">
        <ele>340</ele>
        <time>2017-07-09T09:03:18Z</time>
      </trkpt>
      <trkpt lat="50.02468" lon="5.24877">
        <ele>338</ele>
        <time>2017-07-09T09:03:28Z</time>
      </trkpt>
      <trkpt lat="50.02471" lon="5.24831">
        <ele>336</ele>
        <time>2017-07-09T09:03:38Z</time>
      </trkpt>
      <trkpt lat="50.02473" lon="5.24792">
        <ele>334</ele>
        <time>2017-07-09T09:03:48Z</time>
      </trkpt>
      <trkpt lat="50.02479" lon="5.24758">
        <ele>333</ele>
        <time>2017-07-09T09:03:58Z</time>
      </trkpt>
      <trkpt lat="50.02487" lon="5.24721">
        <ele>331</ele>
        <time>2017-07-09T09:04:08Z</time>
      </trkpt>
      <trkpt lat="50.02495" lon="5.24681">
        <ele>330</ele>
        <time>2017-07-09T09:04:19Z</time>
      </trkpt>
      <trkpt lat="50.02505" lon="5.24638">
        <ele>328</ele>
        <time>2017-07-09T09:04:29Z</time>
      </trkpt>
      <trkpt lat="50.02512" lon="5.24592">
        <ele>326</ele>
        <time>2017-07-09T09:04:39Z</time>
      </trkpt>
      <trkpt lat="50.025" lon="5.24558">
        <ele>325</ele>
        <time>2017-07-09T09:04:50Z</time>
      </trkpt>
      <trkpt lat="50.02494" lon="5.2454">
        <ele>325</ele>
        <time>2017-07-09T09:05:00Z</time>
      </trkpt>
      <trkpt lat="50.02489" lon="5.2452">
        <ele>326</ele>
        <time>2017-07-09T09:05:11Z</time>
      </trkpt>
      <trkpt lat="50.02484" lon="5.245">
        <ele>327</ele>
        <time>2017-07-09T09:05:21Z</time>
      </trkpt>
      <trkpt lat="50.02478" lon="5.24476">
        <ele>327</ele>
        <time>2017-07-09T09:05:31Z</time>
      </trkpt>
      <trkpt lat="50.02471" lon="5.24457">
        <ele>327</ele>
        <time>2017-07-09T09:05:42Z</time>
      </trkpt>
      <trkpt lat="50.02462" lon="5.24437">
        <ele>327</ele>
        <time>2017-07-09T09:05:52Z</time>
      </trkpt>
      <trkpt lat="50.0245" lon="5.24415">
        <ele>326</ele>
        <time>2017-07-09T09:06:02Z</time>
      </trkpt>
      <trkpt lat="50.02433" lon="5.24404">
        <ele>326</ele>
        <time>2017-07-09T09:06:13Z</time>
      </trkpt>
      <trkpt lat="50.02413" lon="5.24391">
        <ele>326</ele>
        <time>2017-07-09T09:06:23Z</time>
      </trkpt>
      <trkpt lat="50.02393" lon="5.24374">
        <ele>327</ele>
        <time>2017-07-09T09:06:34Z</time>
      </trkpt>
      <trkpt lat="50.02365" lon="5.24358">
        <ele>326</ele>
        <time>2017-07-09T09:06:45Z</time>
      </trkpt>
      <trkpt lat="50.02344" lon="5.24348">
        <ele>328</ele>
        <time>2017-07-09T09:06:55Z</time>
      </trkpt>
      <trkpt lat="50.02319" lon="5.24346">
        <ele>327</ele>
        <time>2017-07-09T09:07:05Z</time>
      </trkpt>
      <trkpt lat="50.02296" lon="5.24346">
        <ele>327</ele>
        <time>2017-07-09T09:07:16Z</time>
      </trkpt>
      <trkpt lat="50.02267" lon="5.24352">
        <ele>326</ele>
        <time>2017-07-09T09:07:26Z</time>
      </trkpt>
      <trkpt lat="50.02243" lon="5.24355">
        <ele>326</ele>
        <time>2017-07-09T09:07:37Z</time>
      </trkpt>
      <trkpt lat="50.02222" lon="5.24356">
        <ele>327</ele>
        <time>2017-07-09T09:07:47Z</time>
      </trkpt>
      <trkpt lat="50.02208" lon="5.24359">
        <ele>328</ele>
        <time>2017-07-09T09:07:58Z</time>
      </trkpt>
      <trkpt lat="50.02188" lon="5.24359">
        <ele>328</ele>
        <time>2017-07-09T09:08:08Z</time>
      </trkpt>
      <trkpt lat="50.02174" lon="5.2436">
        <ele>329</ele>
        <time>2017-07-09T09:08:18Z</time>
      </trkpt>
      <trkpt lat="50.02159" lon="5.2436">
        <ele>329</ele>
        <time>2017-07-09T09:08:29Z</time>
      </trkpt>
      <trkpt lat="50.02142" lon="5.24366">
        <ele>330</ele>
        <time>2017-07-09T09:08:40Z</time>
      </trkpt>
      <trkpt lat="50.02127" lon="5.24375">
        <ele>330</ele>
        <time>2017-07-09T09:08:50Z</time>
      </trkpt>
      <trkpt lat="50.02114" lon="5.24387">
        <ele>331</ele>
        <time>2017-07-09T09:09:00Z</time>
      </trkpt>
      <trkpt lat="50.02099" lon="5.24407">
        <ele>331</ele>
        <time>2017-07-09T09:09:10Z</time>
      </trkpt>
      <trkpt lat="50.02082" lon="5.24422">
        <ele>330</ele>
        <time>2017-07-09T09:09:20Z</time>
      </trkpt>
      <trkpt lat="50.02059" lon="5.24436">
        <ele>327</ele>
        <time>2017-07-09T09:09:30Z</time>
      </trkpt>
      <trkpt lat="50.02039" lon="5.24452">
        <ele>327</ele>
        <time>2017-07-09T09:09:41Z</time>
      </trkpt>
      <trkpt lat="50.02022" lon="5.24475">
        <ele>329</ele>
        <time>2017-07-09T09:09:51Z</time>
      </trkpt>
      <trkpt lat="50.01998" lon="5.24464">
        <ele>330</ele>
        <time>2017-07-09T09:10:01Z</time>
      </trkpt>
      <trkpt lat="50.01981" lon="5.24442">
        <ele>331</ele>
        <time>2017-07-09T09:10:12Z</time>
      </trkpt>
      <trkpt lat="50.0197" lon="5.24427">
        <ele>332</ele>
        <time>2017-07-09T09:10:22Z</time>
      </trkpt>
      <trkpt lat="50.01961" lon="5.24414">
        <ele>333</ele>
        <time>2017-07-09T09:10:34Z</time>
      </trkpt>
      <trkpt lat="50.01948" lon="5.244">
        <ele>333</ele>
        <time>2017-07-09T09:10:45Z</time>
      </trkpt>
      <trkpt lat="50.01939" lon="5.24379">
        <ele>334</ele>
        <time>2017-07-09T09:10:55Z</time>
      </trkpt>
      <trkpt lat="50.01932" lon="5.24356">
        <ele>335</ele>
        <time>2017-07-09T09:11:05Z</time>
      </trkpt>
      <trkpt lat="50.01919" lon="5.24334">
        <ele>335</ele>
        <time>2017-07-09T09:11:16Z</time>
      </trkpt>
      <trkpt lat="50.01908" lon="5.24315">
        <ele>336</ele>
        <time>2017-07-09T09:11:26Z</time>
      </trkpt>
      <trkpt lat="50.01897" lon="5.24294">
        <ele>337</ele>
        <time>2017-07-09T09:11:37Z</time>
      </trkpt>
      <trkpt lat="50.01888" lon="5.24276">
        <ele>337</ele>
        <time>2017-07-09T09:11:47Z</time>
      </trkpt>
      <trkpt lat="50.01876" lon="5.24255">
        <ele>338</ele>
        <time>2017-07-09T09:11:58Z</time>
      </trkpt>
      <trkpt lat="50.01862" lon="5.24236">
        <ele>338</ele>
        <time>2017-07-09T09:12:08Z</time>
      </trkpt>
      <trkpt lat="50.01853" lon="5.24218">
        <ele>339</ele>
        <time>2017-07-09T09:12:18Z</time>
      </trkpt>
      <trkpt lat="50.01839" lon="5.24192">
        <ele>338</ele>
        <time>2017-07-09T09:12:28Z</time>
      </trkpt>
      <trkpt lat="50.01824" lon="5.24168">
        <ele>338</ele>
        <time>2017-07-09T09:12:38Z</time>
      </trkpt>
      <trkpt lat="50.01811" lon="5.24147">
        <ele>339</ele>
        <time>2017-07-09T09:12:49Z</time>
      </trkpt>
      <trkpt lat="50.01801" lon="5.24131">
        <ele>338</ele>
        <time>2017-07-09T09:12:59Z</time>
      </trkpt>
      <trkpt lat="50.01789" lon="5.241">
        <ele>339</ele>
        <time>2017-07-09T09:13:11Z</time>
      </trkpt>
      <trkpt lat="50.01778" lon="5.24068">
        <ele>339</ele>
        <time>2017-07-09T09:13:21Z</time>
      </trkpt>
      <trkpt lat="50.01768" lon="5.24041">
        <ele>339</ele>
        <time>2017-07-09T09:13:31Z</time>
      </trkpt>
      <trkpt lat="50.01759" lon="5.24013">
        <ele>340</ele>
        <time>2017-07-09T09:13:41Z</time>
      </trkpt>
      <trkpt lat="50.01748" lon="5.23986">
        <ele>340</ele>
        <time>2017-07-09T09:13:52Z</time>
      </trkpt>
      <trkpt lat="50.01741" lon="5.23958">
        <ele>340</ele>
        <time>2017-07-09T09:14:02Z</time>
      </trkpt>
      <trkpt lat="50.01737" lon="5.23933">
        <ele>340</ele>
        <time>2017-07-09T09:14:12Z</time>
      </trkpt>
      <trkpt lat="50.01735" lon="5.23911">
        <ele>340</ele>
        <time>2017-07-09T09:14:22Z</time>
      </trkpt>
      <trkpt lat="50.01733" lon="5.23884">
        <ele>340</ele>
        <time>2017-07-09T09:14:33Z</time>
      </trkpt>
      <trkpt lat="50.01731" lon="5.23862">
        <ele>340</ele>
        <time>2017-07-09T09:14:43Z</time>
      </trkpt>
      <trkpt lat="50.0173" lon="5.23838">
        <ele>341</ele>
        <time>2017-07-09T09:14:54Z</time>
      </trkpt>
      <trkpt lat="50.01726" lon="5.2381">
        <ele>341</ele>
        <time>2017-07-09T09:15:04Z</time>
      </trkpt>
      <trkpt lat="50.01723" lon="5.23784">
        <ele>342</ele>
        <time>2017-07-09T09:15:14Z</time>
      </trkpt>
      <trkpt lat="50.01721" lon="5.2376">
        <ele>342</ele>
        <time>2017-07-09T09:15:24Z</time>
      </trkpt>
      <trkpt lat="50.01722" lon="5.23733">
        <ele>341</ele>
        <time>2017-07-09T09:15:35Z</time>
      </trkpt>
      <trkpt lat="50.01719" lon="5.23704">
        <ele>342</ele>
        <time>2017-07-09T09:15:46Z</time>
      </trkpt>
      <trkpt lat="50.01714" lon="5.23682">
        <ele>342</ele>
        <time>2017-07-09T09:15:56Z</time>
      </trkpt>
      <trkpt lat="50.01708" lon="5.23661">
        <ele>343</ele>
        <time>2017-07-09T09:16:07Z</time>
      </trkpt>
      <trkpt lat="50.01698" lon="5.23645">
        <ele>344</ele>
        <time>2017-07-09T09:16:17Z</time>
      </trkpt>
      <trkpt lat="50.01683" lon="5.23633">
        <ele>345</ele>
        <time>2017-07-09T09:16:28Z</time>
      </trkpt>
      <trkpt lat="50.0167" lon="5.23627">
        <ele>346</ele>
        <time>2017-07-09T09:16:38Z</time>
      </trkpt>
      <trkpt lat="50.01657" lon="5.23623">
        <ele>348</ele>
        <time>2017-07-09T09:16:48Z</time>
      </trkpt>
      <trkpt lat="50.01642" lon="5.23615">
        <ele>349</ele>
        <time>2017-07-09T09:16:59Z</time>
      </trkpt>
      <trkpt lat="50.01629" lon="5.23607">
        <ele>350</ele>
        <time>2017-07-09T09:17:10Z</time>
      </trkpt>
      <trkpt lat="50.01614" lon="5.23605">
        <ele>352</ele>
        <time>2017-07-09T09:17:20Z</time>
      </trkpt>
      <trkpt lat="50.01602" lon="5.23604">
        <ele>353</ele>
        <time>2017-07-09T09:17:30Z</time>
      </trkpt>
      <trkpt lat="50.0159" lon="5.23602">
        <ele>355</ele>
        <time>2017-07-09T09:17:41Z</time>
      </trkpt>
      <trkpt lat="50.01583" lon="5.23612">
        <ele>356</ele>
        <time>2017-07-09T09:17:52Z</time>
      </trkpt>
      <trkpt lat="50.01578" lon="5.23627">
        <ele>358</ele>
        <time>2017-07-09T09:18:03Z</time>
      </trkpt>
      <trkpt lat="50.01573" lon="5.23649">
        <ele>358</ele>
        <time>2017-07-09T09:18:13Z</time>
      </trkpt>
      <trkpt lat="50.0157" lon="5.23669">
        <ele>359</ele>
        <time>2017-07-09T09:18:24Z</time>
      </trkpt>
      <trkpt lat="50.01565" lon="5.23693">
        <ele>360</ele>
        <time>2017-07-09T09:18:34Z</time>
      </trkpt>
      <trkpt lat="50.01561" lon="5.23712">
        <ele>361</ele>
        <time>2017-07-09T09:18:44Z</time>
      </trkpt>
      <trkpt lat="50.01556" lon="5.23734">
        <ele>362</ele>
        <time>2017-07-09T09:18:55Z</time>
      </trkpt>
      <trkpt lat="50.01552" lon="5.23749">
        <ele>363</ele>
        <time>2017-07-09T09:19:06Z</time>
      </trkpt>
      <trkpt lat="50.01548" lon="5.23768">
        <ele>364</ele>
        <time>2017-07-09T09:19:16Z</time>
      </trkpt>
      <trkpt lat="50.01545" lon="5.23785">
        <ele>365</ele>
        <time>2017-07-09T09:19:26Z</time>
      </trkpt>
      <trkpt lat="50.0154" lon="5.23807">
        <ele>365</ele>
        <time>2017-07-09T09:19:36Z</time>
      </trkpt>
      <trkpt lat="50.01535" lon="5.23832">
        <ele>367</ele>
        <time>2017-07-09T09:19:47Z</time>
      </trkpt>
      <trkpt lat="50.01529" lon="5.23851">
        <ele>368</ele>
        <time>2017-07-09T09:19:57Z</time>
      </trkpt>
      <trkpt lat="50.01524" lon="5.23874">
        <ele>370</ele>
        <time>2017-07-09T09:20:08Z</time>
      </trkpt>
      <trkpt lat="50.0152" lon="5.23892">
        <ele>370</ele>
        <time>2017-07-09T09:20:18Z</time>
      </trkpt>
      <trkpt lat="50.01516" lon="5.23911">
        <ele>372</ele>
        <time>2017-07-09T09:20:29Z</time>
      </trkpt>
      <trkpt lat="50.01513" lon="5.23932">
        <ele>373</ele>
        <time>2017-07-09T09:20:40Z</time>
      </trkpt>
      <trkpt lat="50.01513" lon="5.23947">
        <ele>373</ele>
        <time>2017-07-09T09:20:50Z</time>
      </trkpt>
      <trkpt lat="50.01511" lon="5.23969">
        <ele>374</ele>
        <time>2017-07-09T09:21:00Z</time>
      </trkpt>
      <trkpt lat="50.01509" lon="5.2399">
        <ele>375</ele>
        <time>2017-07-09T09:21:11Z</time>
      </trkpt>
      <trkpt lat="50.01506" lon="5.24013">
        <ele>375</ele>
        <time>2017-07-09T09:21:22Z</time>
      </trkpt>
      <trkpt lat="50.01503" lon="5.24033">
        <ele>376</ele>
        <time>2017-07-09T09:21:32Z</time>
      </trkpt>
      <trkpt lat="50.015" lon="5.24056">
        <ele>377</ele>
        <time>2017-07-09T09:21:42Z</time>
      </trkpt>
      <trkpt lat="50.01496" lon="5.24078">
        <ele>378</ele>
        <time>2017-07-09T09:21:53Z</time>
      </trkpt>
      <trkpt lat="50.01493" lon="5.24101">
        <ele>378</ele>
        <time>2017-07-09T09:22:03Z</time>
      </trkpt>
      <trkpt lat="50.01492" lon="5.24126">
        <ele>379</ele>
        <time>2017-07-09T09:22:14Z</time>
      </trkpt>
      <trkpt lat="50.0149" lon="5.2415">
        <ele>379</ele>
        <time>2017-07-09T09:22:24Z</time>
      </trkpt>
      <trkpt lat="50.01487" lon="5.24173">
        <ele>380</ele>
        <time>2017-07-09T09:22:34Z</time>
      </trkpt>
      <trkpt lat="50.01489" lon="5.24199">
        <ele>381</ele>
        <time>2017-07-09T09:22:45Z</time>
      </trkpt>
      <trkpt lat="50.01489" lon="5.24225">
        <ele>381</ele>
        <time>2017-07-09T09:22:56Z</time>
      </trkpt>
      <trkpt lat="50.01483" lon="5.24245">
        <ele>381</ele>
        <time>2017-07-09T09:23:07Z</time>
      </trkpt>
      <trkpt lat="50.01478" lon="5.24271">
        <ele>382</ele>
        <time>2017-07-09T09:23:18Z</time>
      </trkpt>
      <trkpt lat="50.01474" lon="5.24297">
        <ele>382</ele>
        <time>2017-07-09T09:23:28Z</time>
      </trkpt>
      <trkpt lat="50.0147" lon="5.24325">
        <ele>382</ele>
        <time>2017-07-09T09:23:39Z</time>
      </trkpt>
      <trkpt lat="50.01466" lon="5.24348">
        <ele>382</ele>
        <time>2017-07-09T09:23:49Z</time>
      </trkpt>
      <trkpt lat="50.01464" lon="5.24374">
        <ele>382</ele>
        <time>2017-07-09T09:23:59Z</time>
      </trkpt>
      <trkpt lat="50.01463" lon="5.24399">
        <ele>383</ele>
        <time>2017-07-09T09:24:10Z</time>
      </trkpt>
      <trkpt lat="50.01457" lon="5.24422">
        <ele>384</ele>
        <time>2017-07-09T09:24:21Z</time>
      </trkpt>
      <trkpt lat="50.01455" lon="5.24452">
        <ele>384</ele>
        <time>2017-07-09T09:24:31Z</time>
      </trkpt>
      <trkpt lat="50.01453" lon="5.24479">
        <ele>385</ele>
        <time>2017-07-09T09:24:41Z</time>
      </trkpt>
      <trkpt lat="50.01449" lon="5.24512">
        <ele>385</ele>
        <time>2017-07-09T09:24:52Z</time>
      </trkpt>
      <trkpt lat="50.01443" lon="5.24551">
        <ele>386</ele>
        <time>2017-07-09T09:25:02Z</time>
      </trkpt>
      <trkpt lat="50.01435" lon="5.24594">
        <ele>387</ele>
        <time>2017-07-09T09:25:13Z</time>
      </trkpt>
      <trkpt lat="50.01428" lon="5.24635">
        <ele>388</ele>
        <time>2017-07-09T09:25:23Z</time>
      </trkpt>
      <trkpt lat="50.0142" lon="5.24675">
        <ele>389</ele>
        <time>2017-07-09T09:25:34Z</time>
      </trkpt>
      <trkpt lat="50.01418" lon="5.24705">
        <ele>390</ele>
        <time>2017-07-09T09:25:44Z</time>
      </trkpt>
      <trkpt lat="50.01414" lon="5.24738">
        <ele>390</ele>
        <time>2017-07-09T09:25:55Z</time>
      </trkpt>
      <trkpt lat="50.01411" lon="5.24771">
        <ele>391</ele>
        <time>2017-07-09T09:26:06Z</time>
      </trkpt>
      <trkpt lat="50.01405" lon="5.24807">
        <ele>392</ele>
        <time>2017-07-09T09:26:17Z</time>
      </trkpt>
      <trkpt lat="50.01397" lon="5.24845">
        <ele>392</ele>
        <time>2017-07-09T09:26:28Z</time>
      </trkpt>
      <trkpt lat="50.01388" lon="5.24882">
        <ele>394</ele>
        <time>2017-07-09T09:26:39Z</time>
      </trkpt>
      <trkpt lat="50.01382" lon="5.24914">
        <ele>393</ele>
        <time>2017-07-09T09:26:49Z</time>
      </trkpt>
      <trkpt lat="50.01375" lon="5.24949">
        <ele>393</ele>
        <time>2017-07-09T09:27:00Z</time>
      </trkpt>
      <trkpt lat="50.01371" lon="5.24981">
        <ele>394</ele>
        <time>2017-07-09T09:27:10Z</time>
      </trkpt>
      <trkpt lat="50.0136" lon="5.25013">
        <ele>395</ele>
        <time>2017-07-09T09:27:21Z</time>
      </trkpt>
      <trkpt lat="50.01354" lon="5.25047">
        <ele>395</ele>
        <time>2017-07-09T09:27:32Z</time>
      </trkpt>
      <trkpt lat="50.01352" lon="5.25077">
        <ele>396</ele>
        <time>2017-07-09T09:27:42Z</time>
      </trkpt>
      <trkpt lat="50.01346" lon="5.25111">
        <ele>396</ele>
        <time>2017-07-09T09:27:53Z</time>
      </trkpt>
      <trkpt lat="50.0134" lon="5.25142">
        <ele>397</ele>
        <time>2017-07-09T09:28:03Z</time>
      </trkpt>
      <trkpt lat="50.01334" lon="5.25176">
        <ele>397</ele>
        <time>2017-07-09T09:28:15Z</time>
      </trkpt>
      <trkpt lat="50.01324" lon="5.25213">
        <ele>397</ele>
        <time>2017-07-09T09:28:25Z</time>
      </trkpt>
      <trkpt lat="50.01314" lon="5.25248">
        <ele>397</ele>
        <time>2017-07-09T09:28:37Z</time>
      </trkpt>
      <trkpt lat="50.01301" lon="5.25287">
        <ele>397</ele>
        <time>2017-07-09T09:28:47Z</time>
      </trkpt>
      <trkpt lat="50.013" lon="5.25325">
        <ele>398</ele>
        <time>2017-07-09T09:28:57Z</time>
      </trkpt>
      <trkpt lat="50.01295" lon="5.25358">
        <ele>397</ele>
        <time>2017-07-09T09:29:07Z</time>
      </trkpt>
      <trkpt lat="50.01284" lon="5.25397">
        <ele>397</ele>
        <time>2017-07-09T09:29:18Z</time>
      </trkpt>
      <trkpt lat="50.01275" lon="5.2543">
        <ele>397</ele>
        <time>2017-07-09T09:29:28Z</time>
      </trkpt>
      <trkpt lat="50.01267" lon="5.25468">
        <ele>397</ele>
        <time>2017-07-09T09:29:39Z</time>
      </trkpt>
      <trkpt lat="50.01258" lon="5.25511">
        <ele>398</ele>
        <time>2017-07-09T09:29:50Z</time>
      </trkpt>
      <trkpt lat="50.01249" lon="5.25552">
        <ele>397</ele>
        <time>2017-07-09T09:30:01Z</time>
      </trkpt>
      <trkpt lat="50.01241" lon="5.25587">
        <ele>397</ele>
        <time>2017-07-09T09:30:11Z</time>
      </trkpt>
      <trkpt lat="50.01233" lon="5.2562">
        <ele>397</ele>
        <time>2017-07-09T09:30:22Z</time>
      </trkpt>
      <trkpt lat="50.01226" lon="5.25645">
        <ele>398</ele>
        <time>2017-07-09T09:30:33Z</time>
      </trkpt>
      <trkpt lat="50.01221" lon="5.25671">
        <ele>398</ele>
        <time>2017-07-09T09:30:44Z</time>
      </trkpt>
      <trkpt lat="50.01214" lon="5.25695">
        <ele>398</ele>
        <time>2017-07-09T09:30:54Z</time>
      </trkpt>
      <trkpt lat="50.01209" lon="5.25722">
        <ele>399</ele>
        <time>2017-07-09T09:31:05Z</time>
      </trkpt>
      <trkpt lat="50.01204" lon="5.25747">
        <ele>400</ele>
        <time>2017-07-09T09:31:15Z</time>
      </trkpt>
      <trkpt lat="50.012" lon="5.25771">
        <ele>400</ele>
        <time>2017-07-09T09:31:25Z</time>
      </trkpt>
      <trkpt lat="50.01194" lon="5.25796">
        <ele>401</ele>
        <time>2017-07-09T09:31:36Z</time>
      </trkpt>
      <trkpt lat="50.01189" lon="5.2582">
        <ele>401</ele>
        <time>2017-07-09T09:31:46Z</time>
      </trkpt>
      <trkpt lat="50.01183" lon="5.25843">
        <ele>402</ele>
        <time>2017-07-09T09:31:56Z</time>
      </trkpt>
      <trkpt lat="50.01178" lon="5.25867">
        <ele>402</ele>
        <time>2017-07-09T09:32:07Z</time>
      </trkpt>
      <trkpt lat="50.01172" lon="5.25891">
        <ele>403</ele>
        <time>2017-07-09T09:32:18Z</time>
      </trkpt>
      <trkpt lat="50.01166" lon="5.25913">
        <ele>404</ele>
        <time>2017-07-09T09:32:28Z</time>
      </trkpt>
      <trkpt lat="50.01161" lon="5.25937">
        <ele>404</ele>
        <time>2017-07-09T09:32:38Z</time>
      </trkpt>
      <trkpt lat="50.01157" lon="5.2596">
        <ele>405</ele>
        <time>2017-07-09T09:32:48Z</time>
      </trkpt>
      <trkpt lat="50.01152" lon="5.25984">
        <ele>405</ele>
        <time>2017-07-09T09:32:58Z</time>
      </trkpt>
      <trkpt lat="50.01145" lon="5.26011">
        <ele>405</ele>
        <time>2017-07-09T09:33:09Z</time>
      </trkpt>
      <trkpt lat="50.01137" lon="5.26036">
        <ele>405</ele>
        <time>2017-07-09T09:33:20Z</time>
      </trkpt>
      <trkpt lat="50.01142" lon="5.26055">
        <ele>405</ele>
        <time>2017-07-09T09:33:30Z</time>
      </trkpt>
      <trkpt lat="50.0116" lon="5.26061">
        <ele>405</ele>
        <time>2017-07-09T09:33:41Z</time>
      </trkpt>
      <trkpt lat="50.01176" lon="5.26064">
        <ele>404</ele>
        <time>2017-07-09T09:33:51Z</time>
      </trkpt>
      <trkpt lat="50.01195" lon="5.26065">
        <ele>404</ele>
        <time>2017-07-09T09:34:01Z</time>
      </trkpt>
      <trkpt lat="50.01215" lon="5.26069">
        <ele>404</ele>
        <time>2017-07-09T09:34:12Z</time>
      </trkpt>
      <trkpt lat="50.01233" lon="5.26082">
        <ele>403</ele>
        <time>2017-07-09T09:34:23Z</time>
      </trkpt>
      <trkpt lat="50.0125" lon="5.26094">
        <ele>403</ele>
        <time>2017-07-09T09:34:33Z</time>
      </trkpt>
      <trkpt lat="50.01268" lon="5.26101">
        <ele>402</ele>
        <time>2017-07-09T09:34:43Z</time>
      </trkpt>
      <trkpt lat="50.01288" lon="5.26107">
        <ele>402</ele>
        <time>2017-07-09T09:34:54Z</time>
      </trkpt>
      <trkpt lat="50.01315" lon="5.26113">
        <ele>402</ele>
        <time>2017-07-09T09:35:04Z</time>
      </trkpt>
      <trkpt lat="50.01347" lon="5.26118">
        <ele>401</ele>
        <time>2017-07-09T09:35:14Z</time>
      </trkpt>
      <trkpt lat="50.01379" lon="5.26122">
        <ele>401</ele>
        <time>2017-07-09T09:35:25Z</time>
      </trkpt>
      <trkpt lat="50.01408" lon="5.26127">
        <ele>401</ele>
        <time>2017-07-09T09:35:35Z</time>
      </trkpt>
      <trkpt lat="50.01439" lon="5.26137">
        <ele>399</ele>
        <time>2017-07-09T09:35:46Z</time>
      </trkpt>
      <trkpt lat="50.01466" lon="5.26149">
        <ele>398</ele>
        <time>2017-07-09T09:35:56Z</time>
      </trkpt>
      <trkpt lat="50.01495" lon="5.26153">
        <ele>397</ele>
        <time>2017-07-09T09:36:07Z</time>
      </trkpt>
      <trkpt lat="50.01523" lon="5.26156">
        <ele>395</ele>
        <time>2017-07-09T09:36:17Z</time>
      </trkpt>
      <trkpt lat="50.01543" lon="5.26189">
        <ele>393</ele>
        <time>2017-07-09T09:36:28Z</time>
      </trkpt>
      <trkpt lat="50.01554" lon="5.2623">
        <ele>393</ele>
        <time>2017-07-09T09:36:39Z</time>
      </trkpt>
      <trkpt lat="50.01563" lon="5.26268">
        <ele>392</ele>
        <time>2017-07-09T09:36:49Z</time>
      </trkpt>
      <trkpt lat="50.01576" lon="5.26307">
        <ele>391</ele>
        <time>2017-07-09T09:37:00Z</time>
      </trkpt>
      <trkpt lat="50.01585" lon="5.26346">
        <ele>390</ele>
        <time>2017-07-09T09:37:10Z</time>
      </trkpt>
      <trkpt lat="50.01591" lon="5.26384">
        <ele>389</ele>
        <time>2017-07-09T09:37:20Z</time>
      </trkpt>
      <trkpt lat="50.01599" lon="5.26429">
        <ele>388</ele>
        <time>2017-07-09T09:37:31Z</time>
      </trkpt>
      <trkpt lat="50.01608" lon="5.26469">
        <ele>386</ele>
        <time>2017-07-09T09:37:41Z</time>
      </trkpt>
      <trkpt lat="50.01616" lon="5.26506">
        <ele>383</ele>
        <time>2017-07-09T09:37:51Z</time>
      </trkpt>
      <trkpt lat="50.01625" lon="5.26552">
        <ele>382</ele>
        <time>2017-07-09T09:38:02Z</time>
      </trkpt>
      <trkpt lat="50.01635" lon="5.26596">
        <ele>380</ele>
        <time>2017-07-09T09:38:12Z</time>
      </trkpt>
      <trkpt lat="50.01645" lon="5.2664">
        <ele>378</ele>
        <time>2017-07-09T09:38:22Z</time>
      </trkpt>
      <trkpt lat="50.01653" lon="5.26686">
        <ele>377</ele>
        <time>2017-07-09T09:38:33Z</time>
      </trkpt>
      <trkpt lat="50.01671" lon="5.267">
        <ele>377</ele>
        <time>2017-07-09T09:38:43Z</time>
      </trkpt>
      <trkpt lat="50.0169" lon="5.26676">
        <ele>374</ele>
        <time>2017-07-09T09:38:53Z</time>
      </trkpt>
      <trkpt lat="50.01712" lon="5.2665">
        <ele>372</ele>
        <time>2017-07-09T09:39:03Z</time>
      </trkpt>
      <trkpt lat="50.01736" lon="5.26618">
        <ele>368</ele>
        <time>2017-07-09T09:39:14Z</time>
      </trkpt>
      <trkpt lat="50.01758" lon="5.26592">
        <ele>366</ele>
        <time>2017-07-09T09:39:24Z</time>
      </trkpt>
      <trkpt lat="50.01767" lon="5.26583">
        <ele>364</ele>
        <time>2017-07-09T09:39:25Z</time>
      </trkpt>
    </trkseg>
  </trk>
</gpx>